createdAt,value
2022-11-01T00:01:32.881Z,92342.69
2022-11-01T00:03:59.601Z,92338.03
2022-11-01T00:06:26.285Z,92349.31
2022-11-01T00:08:52.862Z,92346.34
2022-11-01T00:11:19.580Z,92343.22
2022-11-01T00:13:47.289Z,92349.72
2022-11-01T00:16:14.081Z,92331.78
2022-11-01T00:18:40.739Z,92333.88
2022-11-01T00:21:07.407Z,92324.53
2022-11-01T00:23:34.131Z,92327.09
2022-11-01T00:26:01.313Z,92319.88
2022-11-01T00:28:28.415Z,92328.53
2022-11-01T00:30:55.863Z,92324.22
2022-11-01T00:33:22.878Z,92320.22
2022-11-01T00:35:49.517Z,92323.50
2022-11-01T00:38:16.921Z,92326.63
2022-11-01T00:40:44.231Z,92318.31
2022-11-01T00:43:11.524Z,92326.91
2022-11-01T00:45:38.297Z,92320.91
2022-11-01T00:48:05.706Z,92312.91
2022-11-01T00:50:32.397Z,92317.38
2022-11-01T00:52:58.947Z,92326.53
2022-11-01T00:55:25.799Z,92321.88
2022-11-01T00:57:52.542Z,92323.44
2022-11-01T01:00:19.303Z,92320.81
2022-11-01T01:02:45.911Z,92324.75
2022-11-01T01:05:12.604Z,92318.97
2022-11-01T01:07:39.239Z,92321.84
2022-11-01T01:10:06.318Z,92320.03
2022-11-01T01:12:33.063Z,92317.19
2022-11-01T01:14:59.678Z,92309.47
2022-11-01T01:17:28.704Z,92318.47
2022-11-01T01:19:57.973Z,92317.59
2022-11-01T01:22:24.586Z,92317.88
2022-11-01T01:24:51.157Z,92317.06
2022-11-01T01:27:17.862Z,92310.75
2022-11-01T01:29:45.390Z,92310.31
2022-11-01T01:32:16.312Z,92315.38
2022-11-01T01:34:42.930Z,92314.00
2022-11-01T01:37:09.897Z,92318.19
2022-11-01T01:39:36.639Z,92325.00
2022-11-01T01:42:24.765Z,92319.97
2022-11-01T01:44:57.476Z,92316.78
2022-11-01T01:47:30.756Z,92322.16
2022-11-01T01:50:03.441Z,92327.78
2022-11-01T01:52:32.093Z,92319.41
2022-11-01T01:54:59.601Z,92326.84
2022-11-01T01:57:26.221Z,92327.81
2022-11-01T01:59:52.894Z,92326.38
2022-11-01T02:02:19.646Z,92325.56
2022-11-01T02:04:49.455Z,92331.78
2022-11-01T02:07:16.067Z,92329.94
2022-11-01T02:09:42.752Z,92329.38
2022-11-01T02:12:12.633Z,92321.47
2022-11-01T02:14:42.236Z,92328.59
2022-11-01T02:17:12.351Z,92332.91
2022-11-01T02:19:54.090Z,92333.69
2022-11-01T02:22:24.780Z,92333.00
2022-11-01T02:25:00.267Z,92343.75
2022-11-01T02:27:45.482Z,92336.31
2022-11-01T02:30:14.201Z,92344.50
2022-11-01T02:33:03.018Z,92340.06
2022-11-01T02:35:46.522Z,92340.53
2022-11-01T02:38:29.681Z,92337.72
2022-11-01T02:41:13.531Z,92339.47
2022-11-01T02:43:42.604Z,92340.72
2022-11-01T02:46:27.825Z,92344.25
2022-11-01T02:48:54.437Z,92345.34
2022-11-01T02:51:21.771Z,92347.34
2022-11-01T02:53:48.365Z,92354.72
2022-11-01T02:56:16.203Z,92353.16
2022-11-01T02:58:42.842Z,92352.00
2022-11-01T03:01:15.556Z,92354.63
2022-11-01T03:03:43.555Z,92357.13
2022-11-01T03:06:18.338Z,92358.25
2022-11-01T03:08:53.677Z,92357.13
2022-11-01T03:11:25.012Z,92363.09
2022-11-01T03:13:53.918Z,92360.75
2022-11-01T03:16:32.459Z,92359.91
2022-11-01T03:19:05.000Z,92360.47
2022-11-01T03:21:35.442Z,92360.84
2022-11-01T03:24:06.477Z,92363.56
2022-11-01T03:26:33.623Z,92366.72
2022-11-01T03:29:02.969Z,92358.94
2022-11-01T03:31:31.532Z,92362.06
2022-11-01T03:34:00.659Z,92362.84
2022-11-01T03:36:31.690Z,92366.47
2022-11-01T03:39:02.124Z,92370.00
2022-11-01T03:41:29.406Z,92364.44
2022-11-01T03:43:56.082Z,92369.50
2022-11-01T03:46:22.766Z,92362.22
2022-11-01T03:48:49.367Z,92371.22
2022-11-01T03:51:16.044Z,92366.16
2022-11-01T03:53:42.736Z,92371.28
2022-11-01T03:56:09.805Z,92367.72
2022-11-01T03:58:42.252Z,92369.75
2022-11-01T04:01:09.564Z,92362.53
2022-11-01T04:03:36.455Z,92364.69
2022-11-01T04:06:03.198Z,92363.59
2022-11-01T04:08:29.846Z,92369.28
2022-11-01T04:10:56.437Z,92361.75
2022-11-01T04:13:23.060Z,92363.59
2022-11-01T04:16:08.117Z,92358.78
2022-11-01T04:19:13.396Z,92362.78
2022-11-01T04:21:40.708Z,92362.38
2022-11-01T04:24:07.627Z,92359.69
2022-11-01T04:26:34.421Z,92365.56
2022-11-01T04:29:01.015Z,92360.16
2022-11-01T04:31:32.494Z,92358.38
2022-11-01T04:33:59.737Z,92355.25
2022-11-01T04:36:26.518Z,92362.13
2022-11-01T04:38:57.305Z,92357.91
2022-11-01T04:41:25.005Z,92349.69
2022-11-01T04:43:56.103Z,92355.66
2022-11-01T04:46:22.771Z,92357.63
2022-11-01T04:48:49.551Z,92357.19
2022-11-01T04:51:16.217Z,92358.66
2022-11-01T04:53:42.850Z,92360.84
2022-11-01T04:56:11.110Z,92361.00
2022-11-01T04:58:42.986Z,92357.69
2022-11-01T05:01:13.011Z,92351.81
2022-11-01T05:03:39.857Z,92365.22
2022-11-01T05:06:06.769Z,92362.50
2022-11-01T05:08:33.626Z,92367.09
2022-11-01T05:11:00.203Z,92369.63
2022-11-01T05:13:26.814Z,92373.69
2022-11-01T05:16:13.921Z,92368.44
2022-11-01T05:18:42.491Z,92368.03
2022-11-01T05:21:09.142Z,92369.81
2022-11-01T05:23:35.835Z,92370.78
2022-11-01T05:26:02.524Z,92370.81
2022-11-01T05:28:29.211Z,92379.94
2022-11-01T05:30:58.291Z,92372.13
2022-11-01T05:33:24.935Z,92371.44
2022-11-01T05:35:51.792Z,92374.09
2022-11-01T05:38:18.481Z,92381.28
2022-11-01T05:40:45.092Z,92379.81
2022-11-01T05:43:11.761Z,92381.88
2022-11-01T05:45:38.474Z,92385.34
2022-11-01T05:48:05.370Z,92389.59
2022-11-01T05:50:32.261Z,92380.00
2022-11-01T05:53:06.497Z,92382.41
2022-11-01T05:55:33.171Z,92388.00
2022-11-01T05:57:59.929Z,92391.13
2022-11-01T06:00:26.673Z,92386.91
2022-11-01T06:02:53.282Z,92393.22
2022-11-01T06:05:19.958Z,92388.38
2022-11-01T06:07:46.611Z,92396.50
2022-11-01T06:10:13.248Z,92397.59
2022-11-01T06:12:39.865Z,92399.91
2022-11-01T06:15:07.009Z,92405.03
2022-11-01T06:17:33.705Z,92407.59
2022-11-01T06:20:00.318Z,92407.50
2022-11-01T06:22:26.946Z,92410.16
2022-11-01T06:24:55.392Z,92410.84
2022-11-01T06:27:22.047Z,92407.31
2022-11-01T06:29:48.698Z,92408.47
2022-11-01T06:32:15.321Z,92411.66
2022-11-01T06:34:44.840Z,92413.59
2022-11-01T06:37:11.799Z,92411.75
2022-11-01T06:39:38.502Z,92418.38
2022-11-01T06:42:05.294Z,92416.00
2022-11-01T06:44:31.936Z,92409.53
2022-11-01T06:46:58.525Z,92409.59
2022-11-01T06:49:25.420Z,92409.97
2022-11-01T06:51:52.182Z,92415.19
2022-11-01T06:54:18.914Z,92415.72
2022-11-01T06:56:47.766Z,92417.84
2022-11-01T06:59:16.456Z,92411.31
2022-11-01T07:01:44.262Z,92410.00
2022-11-01T07:06:42.575Z,92414.09
2022-11-01T07:09:09.341Z,92411.41
2022-11-01T07:11:36.010Z,92406.06
2022-11-01T07:14:02.741Z,92400.94
2022-11-01T07:16:29.562Z,92406.31
2022-11-01T07:18:56.209Z,92411.72
2022-11-01T07:21:23.006Z,92395.69
2022-11-01T07:23:49.793Z,92402.38
2022-11-01T07:26:16.446Z,92403.25
2022-11-01T07:28:43.076Z,92396.94
2022-11-01T07:31:09.705Z,92401.66
2022-11-01T07:33:36.344Z,92394.13
2022-11-01T07:36:03.212Z,92391.28
2022-11-01T07:38:30.071Z,92397.22
2022-11-01T07:40:56.737Z,92385.94
2022-11-01T07:43:23.509Z,92387.59
2022-11-01T07:45:50.210Z,92395.03
2022-11-01T07:48:18.259Z,92394.81
2022-11-01T07:50:44.960Z,92400.03
2022-11-01T07:53:18.790Z,92391.88
2022-11-01T07:55:45.795Z,92377.75
2022-11-01T07:58:12.754Z,92381.25
2022-11-01T08:00:39.862Z,92374.69
2022-11-01T08:03:11.026Z,92376.91
2022-11-01T08:05:37.747Z,92382.97
2022-11-01T08:08:05.880Z,92378.97
2022-11-01T08:10:33.030Z,92381.22
2022-11-01T08:13:16.157Z,92378.97
2022-11-01T08:15:42.817Z,92367.19
2022-11-01T08:18:09.519Z,92369.31
2022-11-01T08:20:36.254Z,92374.69
2022-11-01T08:23:03.476Z,92364.66
2022-11-01T08:25:30.670Z,92357.84
2022-11-01T08:28:14.544Z,92357.50
2022-11-01T08:30:42.050Z,92360.47
2022-11-01T08:33:08.930Z,92356.59
2022-11-01T08:35:35.555Z,92361.22
2022-11-01T08:38:03.473Z,92363.13
2022-11-01T08:40:30.459Z,92353.13
2022-11-01T08:42:57.124Z,92349.59
2022-11-01T08:45:23.990Z,92346.19
2022-11-01T08:47:50.672Z,92351.19
2022-11-01T08:50:17.694Z,92350.50
2022-11-01T08:52:44.336Z,92351.78
2022-11-01T08:55:11.669Z,92343.28
2022-11-01T08:57:38.465Z,92346.69
2022-11-01T09:00:07.124Z,92341.13
2022-11-01T09:02:34.277Z,92345.56
2022-11-01T09:05:05.072Z,92346.88
2022-11-01T09:07:35.641Z,92339.91
2022-11-01T09:10:02.413Z,92342.38
2022-11-01T09:12:29.208Z,92338.47
2022-11-01T09:14:55.836Z,92332.47
2022-11-01T09:17:23.074Z,92330.88
2022-11-01T09:19:49.825Z,92338.94
2022-11-01T09:22:16.469Z,92340.19
2022-11-01T09:24:43.130Z,92331.44
2022-11-01T09:27:09.860Z,92331.25
2022-11-01T09:29:36.511Z,92324.91
2022-11-01T09:32:03.268Z,92327.69
2022-11-01T09:34:29.898Z,92329.06
2022-11-01T09:36:56.663Z,92321.22
2022-11-01T09:39:23.400Z,92314.59
2022-11-01T09:42:11.074Z,92315.22
2022-11-01T09:44:40.953Z,92310.38
2022-11-01T09:47:18.905Z,92309.94
2022-11-01T09:49:47.217Z,92303.03
2022-11-01T09:52:19.305Z,92303.00
2022-11-01T09:54:46.581Z,92303.69
2022-11-01T09:57:13.126Z,92301.16
2022-11-01T10:00:16.283Z,92290.56
2022-11-01T10:02:51.939Z,92290.50
2022-11-01T10:05:48.652Z,92288.94
2022-11-01T10:08:21.392Z,92277.34
2022-11-01T10:11:22.611Z,92280.91
2022-11-01T10:14:07.984Z,92289.09
2022-11-01T10:16:44.017Z,92285.94
2022-11-01T10:19:18.863Z,92277.81
2022-11-01T10:21:53.218Z,92269.91
2022-11-01T10:24:43.295Z,92282.19
2022-11-01T10:27:43.682Z,92274.31
2022-11-01T10:30:15.647Z,92269.31
2022-11-01T10:33:03.291Z,92266.72
2022-11-01T10:35:37.189Z,92275.56
2022-11-01T10:38:49.979Z,92264.03
2022-11-01T10:41:32.467Z,92267.13
2022-11-01T10:44:01.953Z,92257.81
2022-11-01T10:46:32.141Z,92253.22
2022-11-01T10:49:03.722Z,92255.81
2022-11-01T10:51:31.911Z,92249.31
2022-11-01T10:54:02.465Z,92252.84
2022-11-01T10:56:37.776Z,92246.22
2022-11-01T10:59:46.429Z,92247.38
2022-11-01T11:02:24.987Z,92243.63
2022-11-01T11:04:52.154Z,92241.56
2022-11-01T11:07:21.660Z,92235.28
2022-11-01T11:09:51.282Z,92241.63
2022-11-01T11:12:19.686Z,92241.91
2022-11-01T11:14:51.400Z,92240.88
2022-11-01T11:17:45.943Z,92231.50
2022-11-01T11:20:14.074Z,92231.50
2022-11-01T11:22:42.086Z,92223.22
2022-11-01T11:25:16.566Z,92233.34
2022-11-01T11:27:45.322Z,92231.00
2022-11-01T11:30:14.781Z,92225.81
2022-11-01T11:32:48.075Z,92217.41
2022-11-01T11:35:14.675Z,92225.03
2022-11-01T11:37:41.322Z,92219.69
2022-11-01T11:40:22.291Z,92221.63
2022-11-01T11:42:49.431Z,92222.13
2022-11-01T11:45:27.514Z,92218.25
2022-11-01T11:47:54.855Z,92214.22
2022-11-01T11:50:21.588Z,92216.00
2022-11-01T11:52:48.797Z,92215.22
2022-11-01T11:55:29.462Z,92212.94
2022-11-01T11:57:56.130Z,92216.56
2022-11-01T12:00:24.063Z,92217.44
2022-11-01T12:02:50.933Z,92208.50
2022-11-01T12:05:19.490Z,92210.81
2022-11-01T12:07:55.182Z,92211.66
2022-11-01T12:10:34.331Z,92207.53
2022-11-01T12:13:22.710Z,92206.38
2022-11-01T12:15:49.390Z,92207.31
2022-11-01T12:18:17.345Z,92206.63
2022-11-01T12:20:44.154Z,92211.28
2022-11-01T12:23:26.825Z,92205.09
2022-11-01T12:25:53.438Z,92198.16
2022-11-01T12:28:25.153Z,92203.41
2022-11-01T12:30:52.860Z,92188.97
2022-11-01T12:33:31.384Z,92197.31
2022-11-01T12:35:58.014Z,92195.78
2022-11-01T12:38:39.164Z,92197.06
2022-11-01T12:41:31.191Z,92193.16
2022-11-01T12:44:19.332Z,92193.53
2022-11-01T12:46:53.481Z,92193.06
2022-11-01T12:49:20.039Z,92190.84
2022-11-01T12:51:49.669Z,92195.50
2022-11-01T12:54:25.955Z,92197.84
2022-11-01T12:56:54.039Z,92194.25
2022-11-01T12:59:32.390Z,92197.44
2022-11-01T13:02:16.919Z,92193.91
2022-11-01T13:04:49.819Z,92197.41
2022-11-01T13:07:44.556Z,92197.88
2022-11-01T13:10:29.268Z,92191.19
2022-11-01T13:13:02.558Z,92191.25
2022-11-01T13:15:54.306Z,92192.63
2022-11-01T13:18:44.670Z,92204.91
2022-11-01T13:21:17.304Z,92204.94
2022-11-01T13:23:49.269Z,92207.88
2022-11-01T13:26:26.413Z,92207.16
2022-11-01T13:29:22.930Z,92204.84
2022-11-01T13:32:07.231Z,92188.53
2022-11-01T13:34:58.981Z,92202.75
2022-11-01T13:37:44.654Z,92195.31
2022-11-01T13:40:29.564Z,92200.81
2022-11-01T13:42:58.668Z,92193.97
2022-11-01T13:45:31.704Z,92196.97
2022-11-01T13:48:35.887Z,92205.09
2022-11-01T13:51:08.236Z,92195.19
2022-11-01T13:53:48.925Z,92187.06
2022-11-01T13:56:55.071Z,92193.75
2022-11-01T13:59:36.782Z,92193.25
2022-11-01T14:02:28.325Z,92195.03
2022-11-01T14:04:58.958Z,92193.81
2022-11-01T14:07:39.566Z,92191.13
2022-11-01T14:10:11.104Z,92194.81
2022-11-01T14:12:46.508Z,92191.81
2022-11-01T14:15:26.807Z,92198.63
2022-11-01T14:17:55.153Z,92188.88
2022-11-01T14:20:33.712Z,92195.78
2022-11-01T14:23:27.468Z,92186.13
2022-11-01T14:26:18.928Z,92189.84
2022-11-01T14:28:49.477Z,92195.31
2022-11-01T14:31:17.489Z,92197.16
2022-11-01T14:33:44.550Z,92189.13
2022-11-01T14:36:13.003Z,92189.25
2022-11-01T14:38:54.195Z,92190.97
2022-11-01T14:41:21.367Z,92196.00
2022-11-01T14:43:55.973Z,92188.44
2022-11-01T14:46:27.009Z,92199.25
2022-11-01T14:49:03.296Z,92192.91
2022-11-01T14:52:02.082Z,92178.91
2022-11-01T14:54:36.613Z,92197.09
2022-11-01T14:57:03.917Z,92186.25
2022-11-01T14:59:32.052Z,92186.91
2022-11-01T15:02:05.072Z,92192.91
2022-11-01T15:04:36.009Z,92190.34
2022-11-01T15:07:02.575Z,92193.09
2022-11-01T15:09:30.850Z,92195.34
2022-11-01T15:12:05.967Z,92194.63
2022-11-01T15:14:42.877Z,92194.03
2022-11-01T15:17:33.285Z,92192.56
2022-11-01T15:20:00.323Z,92201.69
2022-11-01T15:22:30.407Z,92189.91
2022-11-01T15:25:05.009Z,92200.94
2022-11-01T15:27:42.303Z,92202.34
2022-11-01T15:30:30.581Z,92200.66
2022-11-01T15:33:20.406Z,92200.72
2022-11-01T15:36:08.829Z,92204.34
2022-11-01T15:38:48.376Z,92203.22
2022-11-01T15:41:24.159Z,92205.19
2022-11-01T15:43:52.238Z,92203.09
2022-11-01T15:46:18.898Z,92206.06
2022-11-01T15:48:45.509Z,92218.38
2022-11-01T15:51:22.931Z,92218.22
2022-11-01T15:53:51.348Z,92217.47
2022-11-01T15:56:21.034Z,92229.22
2022-11-01T15:58:52.956Z,92227.56
2022-11-01T16:01:21.602Z,92231.31
2022-11-01T16:04:06.855Z,92224.97
2022-11-01T16:06:40.906Z,92235.66
2022-11-01T16:09:30.466Z,92240.19
2022-11-01T16:11:58.035Z,92239.81
2022-11-01T16:14:33.554Z,92238.53
2022-11-01T16:17:04.248Z,92250.31
2022-11-01T16:19:51.448Z,92252.69
2022-11-01T16:22:37.685Z,92247.72
2022-11-01T16:25:07.282Z,92253.75
2022-11-01T16:27:35.887Z,92257.50
2022-11-01T16:30:10.349Z,92259.00
2022-11-01T16:32:37.156Z,92264.78
2022-11-01T16:35:30.990Z,92266.44
2022-11-01T16:37:57.669Z,92267.44
2022-11-01T16:40:25.723Z,92266.97
2022-11-01T16:42:52.382Z,92267.97
2022-11-01T16:45:18.997Z,92279.34
2022-11-01T16:47:45.668Z,92273.38
2022-11-01T16:50:16.139Z,92273.31
2022-11-01T16:52:42.802Z,92280.66
2022-11-01T16:55:11.650Z,92284.66
2022-11-01T16:57:38.351Z,92281.97
2022-11-01T17:00:11.594Z,92288.41
2022-11-01T17:02:38.275Z,92285.50
2022-11-01T17:05:06.816Z,92289.78
2022-11-01T17:07:33.657Z,92292.59
2022-11-01T17:10:00.352Z,92290.28
2022-11-01T17:12:26.998Z,92290.63
2022-11-01T17:14:53.859Z,92294.94
2022-11-01T17:17:24.571Z,92291.41
2022-11-01T17:19:55.146Z,92298.13
2022-11-01T17:22:22.887Z,92305.66
2022-11-01T17:24:49.497Z,92293.53
2022-11-01T17:27:16.342Z,92290.72
2022-11-01T17:29:43.221Z,92296.09
2022-11-01T17:32:11.364Z,92292.19
2022-11-01T17:34:38.933Z,92300.78
2022-11-01T17:37:05.622Z,92299.59
2022-11-01T17:39:32.330Z,92304.19
2022-11-01T17:41:59.404Z,92307.22
2022-11-01T17:44:26.130Z,92300.53
2022-11-01T17:46:52.691Z,92307.09
2022-11-01T17:49:21.666Z,92301.59
2022-11-01T17:51:53.278Z,92300.69
2022-11-01T17:54:21.071Z,92295.50
2022-11-01T17:56:48.069Z,92302.63
2022-11-01T17:59:14.846Z,92312.22
2022-11-01T18:01:42.779Z,92306.75
2022-11-01T18:04:09.599Z,92306.34
2022-11-01T18:06:36.253Z,92312.22
2022-11-01T18:09:05.545Z,92305.78
2022-11-01T18:11:59.711Z,92301.81
2022-11-01T18:14:54.029Z,92301.88
2022-11-01T18:17:48.491Z,92305.56
2022-11-01T18:20:47.060Z,92307.56
2022-11-01T18:23:14.769Z,92299.69
2022-11-01T18:25:48.792Z,92308.69
2022-11-01T18:28:19.903Z,92306.34
2022-11-01T18:30:49.033Z,92306.50
2022-11-01T18:33:20.229Z,92297.84
2022-11-01T18:36:01.227Z,92301.66
2022-11-01T18:38:27.901Z,92302.34
2022-11-01T18:41:01.066Z,92301.91
2022-11-01T18:43:31.113Z,92293.03
2022-11-01T18:46:23.828Z,92300.41
2022-11-01T18:48:44.771Z,92300.25
2022-11-01T18:51:21.603Z,92304.16
2022-11-01T18:53:50.040Z,92304.78
2022-11-01T18:56:21.951Z,92305.28
2022-11-01T18:58:50.027Z,92310.97
2022-11-01T19:01:21.478Z,92312.53
2022-11-01T19:03:55.031Z,92310.84
2022-11-01T19:06:22.446Z,92309.78
2022-11-01T19:08:59.073Z,92309.69
2022-11-01T19:11:26.073Z,92310.97
2022-11-01T19:13:52.710Z,92315.38
2022-11-01T19:16:19.423Z,92306.34
2022-11-01T19:18:47.037Z,92318.78
2022-11-01T19:21:18.562Z,92318.56
2022-11-01T19:23:54.822Z,92319.34
2022-11-01T19:26:25.941Z,92319.53
2022-11-01T19:28:52.846Z,92325.44
2022-11-01T19:31:33.041Z,92325.97
2022-11-01T19:34:02.531Z,92319.19
2022-11-01T19:36:35.106Z,92324.25
2022-11-01T19:39:01.781Z,92314.56
2022-11-01T19:41:30.181Z,92328.41
2022-11-01T19:44:01.953Z,92334.53
2022-11-01T19:46:29.718Z,92334.44
2022-11-01T19:48:56.306Z,92327.78
2022-11-01T19:51:23.657Z,92329.34
2022-11-01T19:53:50.958Z,92323.97
2022-11-01T19:56:20.754Z,92336.47
2022-11-01T19:58:51.732Z,92329.88
2022-11-01T20:01:20.709Z,92334.22
2022-11-01T20:03:55.484Z,92333.28
2022-11-01T20:06:31.003Z,92327.13
2022-11-01T20:09:21.670Z,92330.81
2022-11-01T20:11:48.641Z,92332.88
2022-11-01T20:14:15.334Z,92329.16
2022-11-01T20:16:42.018Z,92337.47
2022-11-01T20:19:10.859Z,92330.84
2022-11-01T20:21:40.010Z,92329.84
2022-11-01T20:24:07.224Z,92337.75
2022-11-01T20:26:33.880Z,92333.47
2022-11-01T20:29:00.433Z,92336.25
2022-11-01T20:31:27.346Z,92335.78
2022-11-01T20:33:54.357Z,92333.19
2022-11-01T20:36:21.911Z,92337.34
2022-11-01T20:38:49.303Z,92339.41
2022-11-01T20:41:16.026Z,92335.69
2022-11-01T20:43:42.633Z,92338.31
2022-11-01T20:46:09.365Z,92343.06
2022-11-01T20:48:36.046Z,92332.53
2022-11-01T20:51:02.702Z,92339.41
2022-11-01T20:53:30.030Z,92337.34
2022-11-01T20:55:56.962Z,92340.50
2022-11-01T20:58:23.592Z,92335.81
2022-11-01T21:00:51.587Z,92350.19
2022-11-01T21:03:19.561Z,92343.41
2022-11-01T21:05:47.128Z,92343.63
2022-11-01T21:08:15.606Z,92341.47
2022-11-01T21:10:42.806Z,92342.56
2022-11-01T21:13:47.945Z,92336.88
2022-11-01T21:16:29.088Z,92337.91
2022-11-01T21:19:00.265Z,92329.06
2022-11-01T21:21:45.326Z,92340.25
2022-11-01T21:24:32.581Z,92344.16
2022-11-01T21:27:12.950Z,92332.06
2022-11-01T21:29:49.011Z,92329.50
2022-11-01T21:32:42.467Z,92337.38
2022-11-01T21:35:20.757Z,92341.59
2022-11-01T21:37:52.275Z,92340.78
2022-11-01T21:40:29.106Z,92350.44
2022-11-01T21:42:56.263Z,92338.97
2022-11-01T21:45:30.873Z,92338.44
2022-11-01T21:48:26.540Z,92335.03
2022-11-01T21:50:53.118Z,92337.13
2022-11-01T21:53:19.753Z,92330.06
2022-11-01T21:55:46.435Z,92343.91
2022-11-01T21:58:13.122Z,92346.53
2022-11-01T22:00:39.760Z,92341.81
2022-11-01T22:03:06.788Z,92341.53
2022-11-01T22:05:33.663Z,92332.13
2022-11-01T22:08:00.297Z,92332.13
2022-11-01T22:10:27.072Z,92330.28
2022-11-01T22:12:53.674Z,92327.16
2022-11-01T22:15:20.285Z,92327.44
2022-11-01T22:17:46.986Z,92325.88
2022-11-01T22:20:13.572Z,92323.25
2022-11-01T22:22:40.238Z,92322.19
2022-11-01T22:25:07.056Z,92323.25
2022-11-01T22:27:33.738Z,92311.75
2022-11-01T22:30:00.443Z,92318.31
2022-11-01T22:32:27.059Z,92313.09
2022-11-01T22:34:53.657Z,92311.25
2022-11-01T22:37:20.365Z,92314.66
2022-11-01T22:39:52.048Z,92306.56
2022-11-01T22:42:20.137Z,92312.06
2022-11-01T22:44:47.181Z,92310.22
2022-11-01T22:47:27.348Z,92308.16
2022-11-01T22:49:55.045Z,92296.63
2022-11-01T22:52:32.151Z,92305.50
2022-11-01T22:55:10.921Z,92304.94
2022-11-01T22:57:49.785Z,92296.13
2022-11-01T23:00:41.818Z,92302.09
2022-11-01T23:03:21.217Z,92291.41
2022-11-01T23:05:50.263Z,92287.19
2022-11-01T23:08:30.274Z,92287.47
2022-11-01T23:10:57.174Z,92290.91
2022-11-01T23:13:58.123Z,92287.25
2022-11-01T23:16:26.336Z,92285.97
2022-11-01T23:18:53.870Z,92279.97
2022-11-01T23:21:21.282Z,92278.41
2022-11-01T23:23:47.973Z,92280.97
2022-11-01T23:26:15.774Z,92284.47
2022-11-01T23:28:47.571Z,92283.34
2022-11-01T23:31:14.393Z,92274.25
2022-11-01T23:33:42.613Z,92284.22
2022-11-01T23:36:25.914Z,92285.06
2022-11-01T23:39:00.661Z,92288.69
2022-11-01T23:41:34.497Z,92289.03
2022-11-01T23:44:03.297Z,92290.41
2022-11-01T23:46:29.987Z,92289.34
2022-11-01T23:49:02.154Z,92285.84
2022-11-01T23:51:28.969Z,92292.47
2022-11-01T23:53:55.640Z,92289.59
2022-11-01T23:56:22.245Z,92294.56
2022-11-01T23:58:53.790Z,92294.53
